createdAt,value
2022-09-06T00:00:15.455Z,95420.25
2022-09-06T00:01:15.061Z,95413.13
2022-09-06T00:02:11.825Z,95430.75
2022-09-06T00:03:09.408Z,95352.28
2022-09-06T00:04:06.305Z,95346.81
2022-09-06T00:05:04.949Z,95417.34
2022-09-06T00:06:11.025Z,95421.28
2022-09-06T00:07:07.804Z,95407.34
2022-09-06T00:08:06.005Z,95406.06
2022-09-06T00:09:02.773Z,95430.75
2022-09-06T00:09:59.473Z,95287.19
2022-09-06T00:11:01.396Z,95416.97
2022-09-06T00:11:58.318Z,95425.97
2022-09-06T00:12:55.454Z,95426.78
2022-09-06T00:13:52.291Z,95414.56
2022-09-06T00:14:49.853Z,95419.50
2022-09-06T00:15:46.948Z,95362.44
2022-09-06T00:16:43.750Z,95391.28
2022-09-06T00:17:40.585Z,95263.78
2022-09-06T00:18:37.686Z,95413.66
2022-09-06T00:19:34.436Z,95404.50
2022-09-06T00:20:32.688Z,95407.03
2022-09-06T00:21:31.144Z,95410.75
2022-09-06T00:22:27.898Z,95432.66
2022-09-06T00:23:24.652Z,95418.47
2022-09-06T00:24:21.361Z,95427.13
2022-09-06T00:25:18.091Z,95422.53
2022-09-06T00:26:15.230Z,95382.13
2022-09-06T00:27:11.925Z,95391.16
2022-09-06T00:28:08.634Z,95412.63
2022-09-06T00:29:05.373Z,95406.84
2022-09-06T00:30:04.702Z,95411.06
2022-09-06T00:31:12.240Z,95425.97
2022-09-06T00:32:09.162Z,95401.72
2022-09-06T00:33:05.929Z,95421.59
2022-09-06T00:34:02.752Z,95361.25
2022-09-06T00:34:59.548Z,95390.94
2022-09-06T00:36:00.637Z,95376.94
2022-09-06T00:36:57.372Z,95383.88
2022-09-06T00:38:02.172Z,95427.47
2022-09-06T00:38:59.012Z,95419.75
2022-09-06T00:39:55.768Z,95421.00
2022-09-06T00:40:52.562Z,95422.88
2022-09-06T00:41:49.355Z,95417.41
2022-09-06T00:42:46.121Z,95417.28
2022-09-06T00:43:43.811Z,95363.00
2022-09-06T00:44:40.969Z,95409.22
2022-09-06T00:45:37.738Z,95419.59
2022-09-06T00:46:39.071Z,95440.69
2022-09-06T00:47:40.290Z,95379.94
2022-09-06T00:48:39.927Z,95408.91
2022-09-06T00:49:46.429Z,95410.03
2022-09-06T00:50:46.874Z,95416.38
2022-09-06T00:51:43.827Z,95406.81
2022-09-06T00:52:43.215Z,95440.78
2022-09-06T00:53:39.983Z,95361.03
2022-09-06T00:54:37.996Z,95403.09
2022-09-06T00:55:35.043Z,95417.19
2022-09-06T00:56:34.913Z,95406.22
2022-09-06T00:57:32.845Z,95427.19
2022-09-06T00:58:30.030Z,95406.59
2022-09-06T00:59:32.027Z,95428.28
2022-09-06T01:00:28.857Z,95397.81
2022-09-06T01:01:25.736Z,95392.16
2022-09-06T01:02:22.675Z,95413.72
2022-09-06T01:03:23.322Z,95377.28
2022-09-06T01:04:20.314Z,95374.38
2022-09-06T01:05:18.326Z,95232.91
2022-09-06T01:06:17.734Z,95399.69
2022-09-06T01:07:47.195Z,95384.00
2022-09-06T01:09:10.376Z,95410.75
2022-09-06T01:10:22.247Z,95408.44
2022-09-06T01:11:53.608Z,95406.81
2022-09-06T01:13:04.492Z,95407.06
2022-09-06T01:14:16.557Z,95404.94
2022-09-06T01:15:13.251Z,95407.38
2022-09-06T01:16:37.639Z,95412.78
2022-09-06T01:17:46.350Z,95409.44
2022-09-06T01:18:54.853Z,95403.78
2022-09-06T01:20:29.523Z,95403.44
2022-09-06T01:21:45.762Z,95413.13
2022-09-06T01:23:07.150Z,95413.13
2022-09-06T01:24:09.627Z,95409.31
2022-09-06T01:25:35.545Z,95399.06
2022-09-06T01:26:56.677Z,95404.47
2022-09-06T01:28:08.044Z,95352.44
2022-09-06T01:29:16.214Z,95413.88
2022-09-06T01:30:18.460Z,95385.47
2022-09-06T01:31:17.865Z,95398.09
2022-09-06T01:32:43.187Z,95424.09
2022-09-06T01:34:04.123Z,95403.59
2022-09-06T01:35:25.132Z,95403.72
2022-09-06T01:36:32.612Z,95397.31
2022-09-06T01:37:29.657Z,95421.88
2022-09-06T01:38:27.254Z,95399.53
2022-09-06T01:39:31.020Z,95420.25
2022-09-06T01:40:28.548Z,95399.38
2022-09-06T01:41:25.490Z,95416.50
2022-09-06T01:42:30.109Z,95354.66
2022-09-06T01:43:38.558Z,95390.72
2022-09-06T01:44:41.016Z,95420.97
2022-09-06T01:45:54.283Z,95397.72
2022-09-06T01:47:13.992Z,95398.84
2022-09-06T01:48:30.287Z,95392.00
2022-09-06T01:49:56.008Z,95406.75
2022-09-06T01:51:01.588Z,95394.25
2022-09-06T01:52:16.226Z,95387.25
2022-09-06T01:53:34.485Z,95387.22
2022-09-06T01:54:47.345Z,95390.09
2022-09-06T01:56:09.057Z,95389.81
2022-09-06T01:57:24.159Z,95377.50
2022-09-06T01:59:11.620Z,95384.44
2022-09-06T02:00:11.893Z,95402.84
2022-09-06T02:01:17.389Z,95381.19
2022-09-06T02:02:27.688Z,95390.09
2022-09-06T02:03:59.951Z,95385.38
2022-09-06T02:05:01.427Z,95377.44
2022-09-06T02:06:21.086Z,95382.28
2022-09-06T02:07:26.105Z,95383.31
2022-09-06T02:08:31.699Z,95392.50
2022-09-06T02:09:36.189Z,95395.53
2022-09-06T02:11:03.618Z,95382.94
2022-09-06T02:12:04.325Z,95383.25
2022-09-06T02:13:06.686Z,95381.38
2022-09-06T02:14:12.575Z,95393.56
2022-09-06T02:15:16.586Z,95377.69
2022-09-06T02:16:24.829Z,95215.69
2022-09-06T02:17:27.941Z,95323.72
2022-09-06T02:18:51.107Z,95373.94
2022-09-06T02:20:08.088Z,95384.81
2022-09-06T02:21:09.170Z,95379.88
2022-09-06T02:22:11.511Z,95377.06
2022-09-06T02:23:11.261Z,95370.00
2022-09-06T02:24:15.508Z,95385.25
2022-09-06T02:25:22.522Z,95394.69
2022-09-06T02:26:26.188Z,95384.09
2022-09-06T02:27:23.106Z,95396.66
2022-09-06T02:28:20.069Z,95395.03
2022-09-06T02:29:18.600Z,95397.00
2022-09-06T02:30:15.855Z,95404.50
2022-09-06T02:31:22.212Z,95386.19
2022-09-06T02:32:26.742Z,95394.81
2022-09-06T02:33:31.021Z,95306.53
2022-09-06T02:34:28.018Z,95386.16
2022-09-06T02:35:25.232Z,95408.94
2022-09-06T02:36:23.072Z,95334.56
2022-09-06T02:37:20.868Z,95398.59
2022-09-06T02:38:20.938Z,95406.75
2022-09-06T02:39:17.777Z,95402.50
2022-09-06T02:40:14.706Z,95406.53
2022-09-06T02:41:15.739Z,95396.63
2022-09-06T02:42:15.734Z,95406.56
2022-09-06T02:43:12.659Z,95373.22
2022-09-06T02:44:09.476Z,95253.59
2022-09-06T02:45:06.888Z,95371.03
2022-09-06T02:46:03.946Z,95411.72
2022-09-06T02:47:01.558Z,95406.56
2022-09-06T02:47:58.278Z,95410.25
2022-09-06T02:48:55.149Z,95396.66
2022-09-06T02:49:51.949Z,95390.19
2022-09-06T02:50:48.738Z,95384.44
2022-09-06T02:51:45.437Z,95409.25
2022-09-06T02:52:42.215Z,95285.03
2022-09-06T02:53:39.679Z,95333.59
2022-09-06T02:54:36.396Z,95398.34
2022-09-06T02:55:33.648Z,95391.44
2022-09-06T02:56:30.486Z,95364.50
2022-09-06T02:57:27.212Z,95403.72
2022-09-06T02:58:24.542Z,95387.72
2022-09-06T02:59:21.314Z,95397.72
2022-09-06T03:00:18.074Z,95393.31
2022-09-06T03:01:14.889Z,95387.91
2022-09-06T03:02:11.837Z,95269.66
2022-09-06T03:03:08.616Z,95367.22
2022-09-06T03:04:05.366Z,95399.16
2022-09-06T03:05:02.971Z,95295.00
2022-09-06T03:05:59.736Z,95389.41
2022-09-06T03:06:57.254Z,95343.72
2022-09-06T03:07:55.083Z,95373.88
2022-09-06T03:08:51.810Z,95397.81
2022-09-06T03:09:48.518Z,95373.69
2022-09-06T03:10:50.081Z,95378.97
2022-09-06T03:11:46.823Z,95386.34
2022-09-06T03:12:44.479Z,95386.56
2022-09-06T03:13:41.246Z,95341.47
2022-09-06T03:14:37.941Z,95402.66
2022-09-06T03:15:34.735Z,95400.47
2022-09-06T03:16:31.512Z,95301.56
2022-09-06T03:17:28.303Z,95286.06
2022-09-06T03:18:27.569Z,95349.94
2022-09-06T03:19:24.326Z,95385.31
2022-09-06T03:20:21.062Z,95362.16
2022-09-06T03:21:17.827Z,95389.19
2022-09-06T03:22:14.661Z,95335.25
2022-09-06T03:23:11.499Z,95386.91
2022-09-06T03:24:08.208Z,95381.63
2022-09-06T03:25:10.082Z,95380.84
2022-09-06T03:26:07.987Z,95400.34
2022-09-06T03:27:05.173Z,95401.50
2022-09-06T03:28:02.392Z,95407.66
2022-09-06T03:28:59.162Z,95402.78
2022-09-06T03:29:55.944Z,95410.63
2022-09-06T03:30:53.350Z,95393.50
2022-09-06T03:31:50.164Z,95406.94
2022-09-06T03:32:46.889Z,95396.34
2022-09-06T03:33:43.593Z,95411.28
2022-09-06T03:34:40.301Z,95369.53
2022-09-06T03:35:37.134Z,95385.91
2022-09-06T03:36:33.888Z,95405.88
2022-09-06T03:37:30.643Z,95414.38
2022-09-06T03:38:29.504Z,95342.00
2022-09-06T03:39:26.267Z,95411.00
2022-09-06T03:40:23.320Z,95418.13
2022-09-06T03:41:20.302Z,95412.53
2022-09-06T03:42:17.074Z,95339.97
2022-09-06T03:43:14.433Z,95397.50
2022-09-06T03:44:11.135Z,95412.53
2022-09-06T03:45:08.581Z,95397.38
2022-09-06T03:46:05.508Z,95418.34
2022-09-06T03:47:03.109Z,95384.41
2022-09-06T03:47:59.859Z,95413.25
2022-09-06T03:48:57.722Z,95426.81
2022-09-06T03:49:54.437Z,95411.78
2022-09-06T03:50:55.818Z,95395.78
2022-09-06T03:51:53.149Z,95406.88
2022-09-06T03:52:49.885Z,95415.91
2022-09-06T03:53:46.660Z,95329.84
2022-09-06T03:54:43.595Z,95366.72
2022-09-06T03:55:40.366Z,95430.69
2022-09-06T03:56:37.136Z,95237.91
2022-09-06T03:57:33.859Z,95403.72
2022-09-06T03:58:32.357Z,95410.03
2022-09-06T03:59:29.105Z,95372.06
2022-09-06T04:00:25.861Z,95406.09
2022-09-06T04:01:22.618Z,95359.16
2022-09-06T04:02:19.586Z,95415.97
2022-09-06T04:03:19.407Z,95420.41
2022-09-06T04:04:16.713Z,95424.34
2022-09-06T04:05:13.453Z,95276.28
2022-09-06T04:06:10.557Z,95420.72
2022-09-06T04:07:07.286Z,95426.94
2022-09-06T04:08:05.909Z,95418.50
2022-09-06T04:09:03.697Z,95442.44
2022-09-06T04:10:00.455Z,95242.63
2022-09-06T04:10:59.277Z,95361.69
2022-09-06T04:11:56.054Z,95440.75
2022-09-06T04:12:52.927Z,95413.94
2022-09-06T04:13:49.657Z,95365.63
2022-09-06T04:14:46.317Z,95391.09
2022-09-06T04:15:47.189Z,95392.56
2022-09-06T04:16:44.033Z,95407.47
2022-09-06T04:17:45.839Z,95391.84
2022-09-06T04:18:42.660Z,95378.28
2022-09-06T04:19:39.367Z,95423.69
2022-09-06T04:20:36.103Z,95421.00
2022-09-06T04:21:33.691Z,95357.03
2022-09-06T04:22:30.796Z,95398.72
2022-09-06T04:23:29.312Z,95381.81
2022-09-06T04:24:26.070Z,95415.53
2022-09-06T04:25:22.802Z,95424.22
2022-09-06T04:26:19.594Z,95365.44
2022-09-06T04:27:16.370Z,95424.44
2022-09-06T04:28:13.458Z,95405.91
2022-09-06T04:29:10.191Z,95429.88
2022-09-06T04:30:07.743Z,95379.91
2022-09-06T04:31:05.381Z,95446.63
2022-09-06T04:32:02.437Z,95422.91
2022-09-06T04:32:59.245Z,95423.69
2022-09-06T04:33:56.020Z,95429.13
2022-09-06T04:34:52.725Z,95429.06
2022-09-06T04:35:50.415Z,95412.03
2022-09-06T04:36:48.520Z,95424.25
2022-09-06T04:37:45.467Z,95421.84
2022-09-06T04:38:44.823Z,95364.97
2022-09-06T04:39:41.662Z,95375.03
2022-09-06T04:40:38.393Z,95400.88
2022-09-06T04:41:35.112Z,95412.25
2022-09-06T04:42:31.873Z,95397.63
2022-09-06T04:43:28.690Z,95426.59
2022-09-06T04:44:25.411Z,95423.00
2022-09-06T04:45:22.156Z,95366.53
2022-09-06T04:46:25.486Z,95413.56
2022-09-06T04:47:22.662Z,95260.50
2022-09-06T04:48:19.459Z,95403.81
2022-09-06T04:49:16.231Z,95257.34
2022-09-06T04:50:12.934Z,95419.31
2022-09-06T04:51:09.648Z,95413.50
2022-09-06T04:52:06.406Z,95393.81
2022-09-06T04:53:03.841Z,95277.03
2022-09-06T04:54:00.572Z,95420.31
2022-09-06T04:54:57.302Z,95424.34
2022-09-06T04:55:57.418Z,95410.19
2022-09-06T04:56:54.158Z,95424.13
2022-09-06T04:57:51.448Z,95417.66
2022-09-06T04:58:50.067Z,95413.66
2022-09-06T04:59:46.817Z,95439.81
2022-09-06T05:00:44.795Z,95396.69
2022-09-06T05:01:41.614Z,95426.66
2022-09-06T05:02:38.451Z,95423.91
2022-09-06T05:03:35.342Z,95425.97
2022-09-06T05:04:32.240Z,95403.03
2022-09-06T05:05:29.083Z,95407.47
2022-09-06T05:06:26.288Z,95386.28
2022-09-06T05:07:22.997Z,95423.84
2022-09-06T05:08:19.763Z,95411.97
2022-09-06T05:09:16.520Z,95417.88
2022-09-06T05:10:13.309Z,95376.13
2022-09-06T05:11:11.085Z,95419.34
2022-09-06T05:12:07.977Z,95425.88
2022-09-06T05:13:04.751Z,95426.53
2022-09-06T05:14:01.540Z,95399.41
2022-09-06T05:14:58.256Z,95403.16
2022-09-06T05:15:55.011Z,95417.28
2022-09-06T05:16:51.859Z,95383.03
2022-09-06T05:17:48.826Z,95408.31
2022-09-06T05:18:45.583Z,95411.59
2022-09-06T05:19:42.309Z,95402.34
2022-09-06T05:20:39.148Z,95422.59
2022-09-06T05:21:35.887Z,95431.91
2022-09-06T05:22:32.625Z,95426.13
2022-09-06T05:23:29.668Z,95427.41
2022-09-06T05:24:26.379Z,95427.91
2022-09-06T05:25:23.163Z,95381.47
2022-09-06T05:26:19.973Z,95380.81
2022-09-06T05:27:16.675Z,95414.56
2022-09-06T05:28:14.086Z,95414.56
2022-09-06T05:29:10.770Z,95425.91
2022-09-06T05:30:08.141Z,95404.28
2022-09-06T05:31:26.079Z,95421.75
2022-09-06T05:32:23.160Z,95431.00
2022-09-06T05:33:22.418Z,95403.88
2022-09-06T05:34:19.118Z,95404.34
2022-09-06T05:35:15.958Z,95409.00
2022-09-06T05:36:12.688Z,95313.03
2022-09-06T05:37:09.403Z,95428.94
2022-09-06T05:38:06.177Z,95432.78
2022-09-06T05:40:17.344Z,95424.38
2022-09-06T05:41:14.069Z,95304.09
2022-09-06T05:42:10.800Z,95426.09
2022-09-06T05:43:07.498Z,95434.28
2022-09-06T05:44:04.255Z,95419.88
2022-09-06T05:45:01.860Z,95445.00
2022-09-06T05:45:59.194Z,95423.59
2022-09-06T05:46:55.960Z,95428.06
2022-09-06T05:47:52.713Z,95425.19
2022-09-06T05:49:00.470Z,95371.50
2022-09-06T05:49:57.395Z,95430.88
2022-09-06T05:51:02.537Z,95349.59
2022-09-06T05:51:59.334Z,95418.66
2022-09-06T05:52:56.157Z,95421.59
2022-09-06T05:53:52.879Z,95361.06
2022-09-06T05:54:49.597Z,95409.06
2022-09-06T05:55:46.307Z,95424.94
2022-09-06T05:56:43.077Z,95423.81
2022-09-06T05:57:39.853Z,95346.44
2022-09-06T05:58:37.927Z,95424.75
2022-09-06T05:59:34.662Z,95411.97
2022-09-06T06:00:31.388Z,95322.03
2022-09-06T06:01:30.723Z,95430.34
2022-09-06T06:02:27.611Z,95425.69
2022-09-06T06:03:24.368Z,95375.22
2022-09-06T06:04:22.449Z,95410.31
2022-09-06T06:05:19.213Z,95393.78
2022-09-06T06:06:15.928Z,95419.78
2022-09-06T06:07:12.693Z,95425.47
2022-09-06T06:08:09.423Z,95349.59
2022-09-06T06:09:06.262Z,95347.00
2022-09-06T06:10:06.010Z,95402.69
2022-09-06T06:11:03.085Z,95408.06
2022-09-06T06:11:59.854Z,95406.31
2022-09-06T06:12:57.723Z,95408.44
2022-09-06T06:13:54.510Z,95390.72
2022-09-06T06:14:51.257Z,95361.72
2022-09-06T06:15:47.982Z,95409.25
2022-09-06T06:16:44.733Z,95409.19
2022-09-06T06:17:41.470Z,95410.06
2022-09-06T06:18:38.546Z,95409.34
2022-09-06T06:19:35.298Z,95413.84
2022-09-06T06:20:32.025Z,95394.84
2022-09-06T06:21:31.777Z,95405.94
2022-09-06T06:22:28.589Z,95408.19
2022-09-06T06:23:25.942Z,95357.41
2022-09-06T06:24:22.978Z,95412.22
2022-09-06T06:25:23.078Z,95409.16
2022-09-06T06:26:20.248Z,95251.00
2022-09-06T06:27:17.021Z,95399.31
2022-09-06T06:28:14.394Z,95383.31
2022-09-06T06:29:11.165Z,95418.25
2022-09-06T06:30:08.500Z,95420.19
2022-09-06T06:31:07.573Z,95422.94
2022-09-06T06:32:04.431Z,95422.06
2022-09-06T06:33:02.543Z,95335.50
2022-09-06T06:33:59.949Z,95251.78
2022-09-06T06:34:56.659Z,95401.03
2022-09-06T06:36:01.601Z,95406.59
2022-09-06T06:36:59.183Z,95414.06
2022-09-06T06:37:56.406Z,95388.13
2022-09-06T06:38:55.495Z,95406.09
2022-09-06T06:39:52.323Z,95411.41
2022-09-06T06:40:49.130Z,95291.03
2022-09-06T06:41:46.023Z,95394.84
2022-09-06T06:42:42.942Z,95417.41
2022-09-06T06:43:40.761Z,95416.97
2022-09-06T06:44:37.478Z,95247.44
2022-09-06T06:45:34.187Z,95396.19
2022-09-06T06:46:34.513Z,95417.97
2022-09-06T06:47:31.373Z,95426.44
2022-09-06T06:48:28.863Z,95414.94
2022-09-06T06:49:25.718Z,95375.25
2022-09-06T06:50:22.460Z,95403.03
2022-09-06T06:51:21.068Z,95393.44
2022-09-06T06:52:17.837Z,95403.66
2022-09-06T06:53:14.630Z,95427.25
2022-09-06T06:54:11.362Z,95416.16
2022-09-06T06:55:08.572Z,95397.16
2022-09-06T06:56:16.722Z,95414.16
2022-09-06T06:57:13.473Z,95396.72
2022-09-06T06:58:10.211Z,95414.84
2022-09-06T06:59:07.960Z,95401.97
2022-09-06T07:00:05.422Z,95412.25
2022-09-06T07:01:05.228Z,95390.63
2022-09-06T07:02:02.233Z,95439.88
2022-09-06T07:03:00.103Z,95293.66
2022-09-06T07:03:58.307Z,95362.91
2022-09-06T07:04:55.112Z,95426.50
2022-09-06T07:08:25.348Z,95339.47
2022-09-06T07:09:22.797Z,95418.03
2022-09-06T07:10:35.563Z,95415.06
2022-09-06T07:11:32.799Z,95384.91
2022-09-06T07:12:29.610Z,95423.03
2022-09-06T07:13:26.396Z,95388.72
2022-09-06T07:14:23.150Z,95433.69
2022-09-06T07:15:19.909Z,95418.06
2022-09-06T07:16:20.541Z,95430.81
2022-09-06T07:17:17.295Z,95430.56
2022-09-06T07:18:16.185Z,95426.84
2022-09-06T07:20:29.787Z,95408.00
2022-09-06T07:21:42.530Z,95431.56
2022-09-06T07:22:40.440Z,95389.25
2022-09-06T07:24:54.072Z,95427.59
2022-09-06T07:25:51.095Z,95365.34
2022-09-06T07:28:09.020Z,95411.34
2022-09-06T07:29:07.169Z,95383.81
2022-09-06T07:30:04.179Z,95395.81
2022-09-06T07:31:01.478Z,95378.81
2022-09-06T07:32:14.677Z,95398.72
2022-09-06T07:33:11.804Z,95424.38
2022-09-06T07:34:08.586Z,95422.28
2022-09-06T07:35:05.765Z,95396.81
2022-09-06T07:36:04.978Z,95412.16
2022-09-06T07:37:01.699Z,95411.41
2022-09-06T07:38:00.758Z,95409.59
2022-09-06T07:38:57.554Z,95294.41
2022-09-06T07:39:54.575Z,95413.38
2022-09-06T07:40:56.722Z,95351.72
2022-09-06T07:41:53.532Z,95417.78
2022-09-06T07:42:50.301Z,95403.97
2022-09-06T07:43:47.610Z,95402.44
2022-09-06T07:44:44.356Z,95400.97
2022-09-06T07:45:41.771Z,95411.59
2022-09-06T07:46:38.601Z,95417.41
2022-09-06T07:48:52.176Z,95415.63
2022-09-06T07:51:16.314Z,95373.03
2022-09-06T07:53:31.337Z,95414.06
2022-09-06T07:54:30.807Z,95415.84
2022-09-06T07:55:27.834Z,95292.22
2022-09-06T07:56:25.537Z,95340.53
2022-09-06T07:57:23.384Z,95403.00
2022-09-06T07:58:20.126Z,95394.22
2022-09-06T07:59:17.045Z,95366.09
2022-09-06T08:00:13.973Z,95418.38
2022-09-06T08:01:28.310Z,95403.88
2022-09-06T08:02:25.202Z,95363.13
2022-09-06T08:03:22.063Z,95373.47
2022-09-06T08:04:18.903Z,95402.72
2022-09-06T08:09:10.422Z,95386.75
2022-09-06T08:10:07.667Z,95417.06
2022-09-06T08:11:07.513Z,95421.00
2022-09-06T08:12:07.098Z,95382.75
2022-09-06T08:13:04.011Z,95414.09
2022-09-06T08:14:03.161Z,95385.69
2022-09-06T08:14:59.919Z,95397.25
2022-09-06T08:16:04.747Z,95404.75
2022-09-06T08:17:02.447Z,95391.63
2022-09-06T08:17:59.189Z,95370.78
2022-09-06T08:18:58.386Z,95401.84
2022-09-06T08:19:55.172Z,95360.06
2022-09-06T08:20:52.129Z,95404.22
2022-09-06T08:21:49.677Z,95409.56
2022-09-06T08:22:46.413Z,95402.28
2022-09-06T08:23:50.838Z,95401.81
2022-09-06T08:24:47.562Z,95405.50
2022-09-06T08:25:44.318Z,95405.28
2022-09-06T08:26:43.032Z,95392.28
2022-09-06T08:27:39.751Z,95393.38
2022-09-06T08:28:36.495Z,95288.16
2022-09-06T08:29:34.029Z,95389.94
2022-09-06T08:30:30.885Z,95375.53
2022-09-06T08:31:30.435Z,95381.47
2022-09-06T08:32:27.249Z,95387.91
2022-09-06T08:33:25.666Z,95400.50
2022-09-06T08:34:22.534Z,95354.72
2022-09-06T08:35:19.275Z,95402.34
2022-09-06T08:36:16.075Z,95393.50
2022-09-06T08:37:12.835Z,95375.06
2022-09-06T08:38:09.594Z,95406.66
2022-09-06T08:39:09.962Z,95403.41
2022-09-06T08:40:07.409Z,95374.78
2022-09-06T08:41:12.185Z,95349.88
2022-09-06T08:42:12.025Z,95350.97
2022-09-06T08:43:20.068Z,95384.69
2022-09-06T08:45:55.827Z,95213.97
2022-09-06T08:46:55.993Z,95372.34
2022-09-06T08:47:52.929Z,95250.34
2022-09-06T08:48:49.874Z,95366.22
2022-09-06T08:50:00.522Z,95259.44
2022-09-06T08:51:06.061Z,95355.25
2022-09-06T08:52:12.150Z,95316.69
2022-09-06T08:53:18.835Z,95347.16
2022-09-06T08:54:33.649Z,95407.97
2022-09-06T08:55:54.984Z,95347.44
2022-09-06T08:57:18.392Z,95364.28
2022-09-06T08:58:36.960Z,95355.44
2022-09-06T08:59:39.855Z,95361.63
2022-09-06T09:00:38.897Z,95351.22
2022-09-06T09:01:54.047Z,95360.28
2022-09-06T09:03:04.294Z,95339.69
2022-09-06T09:04:05.531Z,95347.16
2022-09-06T09:05:05.893Z,95375.00
2022-09-06T09:06:05.571Z,95311.56
2022-09-06T09:07:16.869Z,95352.72
2022-09-06T09:08:36.461Z,95338.78
2022-09-06T09:09:35.754Z,95357.78
2022-09-06T09:10:48.207Z,95312.84
2022-09-06T09:11:50.978Z,95343.91
2022-09-06T09:12:50.422Z,95302.69
2022-09-06T09:13:56.074Z,95319.25
2022-09-06T09:15:05.445Z,95323.88
2022-09-06T09:16:02.615Z,95334.81
2022-09-06T09:17:06.320Z,95324.72
2022-09-06T09:18:04.209Z,95296.38
2022-09-06T09:19:05.272Z,95305.91
2022-09-06T09:20:02.369Z,95318.78
2022-09-06T09:20:59.338Z,95333.69
2022-09-06T09:21:56.170Z,95331.53
2022-09-06T09:22:52.920Z,95348.09
2022-09-06T09:23:55.272Z,95329.03
2022-09-06T09:24:53.093Z,95336.91
2022-09-06T09:25:53.693Z,95268.47
2022-09-06T09:26:57.538Z,95320.56
2022-09-06T09:27:57.897Z,95328.81
2022-09-06T09:29:05.154Z,95308.88
2022-09-06T09:31:42.078Z,95325.78
2022-09-06T09:32:44.961Z,95310.47
2022-09-06T09:33:41.744Z,95177.44
2022-09-06T09:34:40.490Z,95291.78
2022-09-06T09:35:42.245Z,95315.78
2022-09-06T09:36:40.105Z,95325.97
2022-09-06T09:37:56.003Z,95207.03
2022-09-06T09:38:56.993Z,95315.44
2022-09-06T09:39:58.075Z,95316.84
2022-09-06T09:40:56.426Z,95292.81
2022-09-06T09:41:53.443Z,95294.72
2022-09-06T09:42:50.651Z,95276.78
2022-09-06T09:44:04.654Z,95143.13
2022-09-06T09:45:05.703Z,95263.38
2022-09-06T09:46:29.807Z,95314.56
2022-09-06T09:47:29.831Z,95295.00
2022-09-06T09:48:28.079Z,95310.50
2022-09-06T09:49:25.283Z,95261.59
2022-09-06T09:50:24.894Z,95198.22
2022-09-06T09:51:27.621Z,95164.41
2022-09-06T09:52:31.230Z,95302.28
2022-09-06T09:53:27.945Z,95299.56
2022-09-06T09:54:32.915Z,95306.16
2022-09-06T09:55:29.806Z,95291.16
2022-09-06T09:56:26.453Z,95288.13
2022-09-06T09:57:24.534Z,95277.53
2022-09-06T09:58:39.626Z,95320.25
2022-09-06T09:59:36.280Z,95282.63
2022-09-06T10:00:43.255Z,95288.59
2022-09-06T10:01:40.106Z,95262.22
2022-09-06T10:02:39.747Z,95244.91
2022-09-06T10:05:21.104Z,95261.13
2022-09-06T10:07:51.072Z,95286.38
2022-09-06T10:08:48.189Z,95294.22
2022-09-06T10:09:57.076Z,95272.81
2022-09-06T10:10:53.877Z,95278.69
2022-09-06T10:11:54.337Z,95281.59
2022-09-06T10:13:12.590Z,95256.91
2022-09-06T10:14:25.527Z,95285.75
2022-09-06T10:15:40.171Z,95282.09
2022-09-06T10:16:45.495Z,95249.59
2022-09-06T10:17:51.725Z,95232.75
2022-09-06T10:18:52.750Z,95160.28
2022-09-06T10:19:49.779Z,95276.16
2022-09-06T10:20:58.300Z,95280.41
2022-09-06T10:22:07.890Z,95175.94
2022-09-06T10:23:05.002Z,95263.44
2022-09-06T10:24:28.522Z,95264.81
2022-09-06T10:25:37.674Z,95266.41
2022-09-06T10:26:53.350Z,95235.84
2022-09-06T10:28:11.827Z,95258.66
2022-09-06T10:30:10.193Z,95175.66
2022-09-06T10:31:34.654Z,95159.00
2022-09-06T10:32:45.943Z,95251.28
2022-09-06T10:34:03.814Z,95261.88
2022-09-06T10:35:15.071Z,95260.84
2022-09-06T10:36:19.432Z,95252.78
2022-09-06T10:37:19.343Z,95249.13
2022-09-06T10:39:01.586Z,95194.69
2022-09-06T10:40:10.186Z,95250.91
2022-09-06T10:41:25.287Z,95252.28
2022-09-06T10:42:28.145Z,95248.38
2022-09-06T10:43:38.561Z,95253.97
2022-09-06T10:45:07.625Z,95253.47
2022-09-06T10:46:14.667Z,95260.63
2022-09-06T10:47:15.070Z,95249.25
2022-09-06T10:48:20.750Z,95250.72
2022-09-06T10:49:19.862Z,95263.69
2022-09-06T10:50:17.479Z,95255.13
2022-09-06T10:51:29.312Z,95241.19
2022-09-06T10:52:34.436Z,95206.16
2022-09-06T10:53:53.297Z,95243.94
2022-09-06T10:54:52.761Z,95250.34
2022-09-06T10:56:04.271Z,95132.44
2022-09-06T11:00:02.220Z,95230.50
2022-09-06T11:00:59.261Z,95220.31
2022-09-06T11:04:13.314Z,95235.91
2022-09-06T11:06:45.803Z,95231.34
2022-09-06T11:09:18.106Z,95159.00
2022-09-06T11:10:30.299Z,95117.31
2022-09-06T11:11:42.790Z,95209.63
2022-09-06T11:12:55.778Z,95193.31
2022-09-06T11:13:52.525Z,95164.00
2022-09-06T11:14:49.394Z,95228.13
2022-09-06T11:15:55.311Z,95220.88
2022-09-06T11:17:01.692Z,95157.81
2022-09-06T11:18:09.192Z,95188.56
2022-09-06T11:19:29.715Z,95208.06
2022-09-06T11:20:51.694Z,95211.78
2022-09-06T11:22:24.141Z,95235.41
2022-09-06T11:23:40.763Z,95200.09
2022-09-06T11:24:43.696Z,95228.56
2022-09-06T11:26:13.323Z,95222.66
2022-09-06T11:27:19.375Z,95228.72
2022-09-06T11:28:50.591Z,95173.72
2022-09-06T11:29:56.568Z,95220.66
2022-09-06T11:30:58.080Z,95232.72
2022-09-06T11:33:26.785Z,95212.94
2022-09-06T11:34:35.311Z,95223.34
2022-09-06T11:35:34.856Z,95224.88
2022-09-06T11:36:36.324Z,95212.16
2022-09-06T11:37:39.612Z,95181.91
2022-09-06T11:38:36.486Z,95224.13
2022-09-06T11:41:06.356Z,95196.00
2022-09-06T11:42:08.982Z,95199.38
2022-09-06T11:43:05.650Z,95202.38
2022-09-06T11:44:04.447Z,95220.50
2022-09-06T11:45:04.083Z,95204.34
2022-09-06T11:46:00.858Z,95169.97
2022-09-06T11:46:58.940Z,95222.19
2022-09-06T11:47:56.096Z,95212.06
2022-09-06T11:49:05.949Z,95204.50
2022-09-06T11:50:21.003Z,95202.53
2022-09-06T11:51:35.621Z,95189.47
2022-09-06T11:52:57.752Z,95201.75
2022-09-06T11:53:57.772Z,95196.22
2022-09-06T11:54:55.162Z,95190.63
2022-09-06T11:56:16.957Z,95193.28
2022-09-06T11:57:21.276Z,95148.03
2022-09-06T11:58:17.959Z,95183.69
2022-09-06T11:59:41.770Z,95145.28
2022-09-06T12:00:38.630Z,95198.28
2022-09-06T12:01:37.682Z,95170.22
2022-09-06T12:02:41.721Z,95183.03
2022-09-06T12:05:00.735Z,95192.72
2022-09-06T12:06:15.430Z,95195.97
2022-09-06T12:07:13.498Z,95200.66
2022-09-06T12:08:19.148Z,95183.91
2022-09-06T12:09:31.258Z,95182.91
2022-09-06T12:10:49.746Z,95182.03
2022-09-06T12:11:46.796Z,95189.63
2022-09-06T12:12:50.837Z,95171.38
2022-09-06T12:13:53.388Z,95126.31
2022-09-06T12:14:50.129Z,95167.75
2022-09-06T12:15:54.588Z,95161.44
2022-09-06T12:17:05.124Z,95171.41
2022-09-06T12:18:01.910Z,95183.97
2022-09-06T12:19:00.122Z,95193.56
2022-09-06T12:20:06.897Z,95182.38
2022-09-06T12:21:04.073Z,95173.19
2022-09-06T12:22:00.851Z,95036.97
2022-09-06T12:22:57.577Z,95171.50
2022-09-06T12:23:54.326Z,95179.59
2022-09-06T12:24:55.818Z,95154.53
2022-09-06T12:25:58.804Z,95110.28
2022-09-06T12:27:18.429Z,95168.97
2022-09-06T12:28:29.501Z,95149.22
2022-09-06T12:29:28.330Z,95058.34
2022-09-06T12:30:38.350Z,95173.53
2022-09-06T12:31:39.958Z,95176.19
2022-09-06T12:32:43.924Z,95084.31
2022-09-06T12:33:40.947Z,95106.25
2022-09-06T12:34:38.301Z,95079.69